Time;durP1;ratioP1;P1;durP2;ratioP2;P2;SDS_P1;SDS_P2;PMS_P1;PMS_P2;Temp;Humidity;BMP_temperature;BMP_pressure;BME280_temperature;BME280_humidity;BME280_pressure;Samples;Min_cycle;Max_cycle;Signal;HPM_P1;HPM_P2
2022/10/07 00:02:05;;;;;;;13.80;6.90;;;20.30;90.60;;;;;;5036770;28;20040;-83
2022/10/07 00:04:32;;;;;;;19.00;7.70;;;20.30;90.60;;;;;;5036541;28;20037;-81
2022/10/07 00:06:58;;;;;;;14.93;7.55;;;20.30;90.60;;;;;;5018355;28;20081;-71
2022/10/07 00:09:24;;;;;;;16.52;7.22;;;20.30;90.70;;;;;;5035832;28;20513;-71
2022/10/07 00:11:50;;;;;;;13.45;7.18;;;20.30;90.70;;;;;;5036097;28;20033;-71
2022/10/07 00:14:16;;;;;;;15.55;7.38;;;20.20;90.70;;;;;;5036201;28;20028;-71
2022/10/07 00:16:43;;;;;;;14.07;7.35;;;20.20;90.70;;;;;;5036174;28;20025;-75
2022/10/07 00:19:13;;;;;;;15.60;7.10;;;20.20;90.80;;;;;;5035798;28;20029;-77
2022/10/07 00:21:40;;;;;;;14.15;6.35;;;20.20;90.80;;;;;;5035761;28;20022;-75
2022/10/07 00:24:07;;;;;;;13.98;7.03;;;20.20;90.90;;;;;;5018111;28;20487;-71
2022/10/07 00:26:34;;;;;;;14.45;7.40;;;20.20;90.80;;;;;;5017980;28;20099;-72
2022/10/07 00:29:01;;;;;;;13.02;6.90;;;20.10;90.90;;;;;;5035377;28;20391;-71
2022/10/07 00:31:30;;;;;;;17.33;7.38;;;20.10;91.00;;;;;;5035443;28;20037;-72
2022/10/07 00:33:58;;;;;;;15.32;6.70;;;20.10;91.10;;;;;;5035459;28;20112;-72
2022/10/07 00:36:36;;;;;;;13.57;6.70;;;20.00;91.20;;;;;;5034919;28;20094;-73
2022/10/07 00:39:05;;;;;;;13.65;7.50;;;20.00;91.60;;;;;;5035678;28;20025;-71
2022/10/07 00:41:51;;;;;;;17.10;7.22;;;19.90;91.40;;;;;;5017978;28;20390;-72
2022/10/07 00:44:34;;;;;;;19.20;7.85;;;19.90;91.80;;;;;;5035835;28;20164;-73
2022/10/07 00:47:05;;;;;;;11.32;7.40;;;19.90;91.80;;;;;;5035599;28;20075;-76
2022/10/07 00:49:57;;;;;;;15.75;7.43;;;19.90;91.60;;;;;;5018876;28;20183;-73
2022/10/07 00:52:29;;;;;;;15.75;7.60;;;19.90;91.90;;;;;;5035773;28;20036;-76
2022/10/07 00:54:59;;;;;;;12.07;7.20;;;19.90;91.80;;;;;;5018205;28;20070;-74
2022/10/07 00:57:30;;;;;;;14.75;7.70;;;19.90;91.70;;;;;;5036839;28;20037;-71
2022/10/07 00:59:57;;;;;;;12.63;7.20;;;19.90;91.90;;;;;;5035459;28;20489;-80
2022/10/07 01:02:24;;;;;;;12.88;7.28;;;19.90;91.70;;;;;;5035142;28;20505;-74
2022/10/07 01:04:52;;;;;;;11.18;7.25;;;19.90;91.80;;;;;;5035083;28;20105;-71
2022/10/07 01:07:20;;;;;;;14.10;7.28;;;19.90;91.80;;;;;;5035223;28;20021;-71
2022/10/07 01:09:50;;;;;;;14.70;7.35;;;19.80;91.80;;;;;;5017949;28;20092;-71
2022/10/07 01:12:41;;;;;;;13.75;8.10;;;19.80;92.00;;;;;;5017711;28;20025;-74
2022/10/07 01:15:36;;;;;;;13.73;7.40;;;19.80;92.00;;;;;;5034518;28;20032;-71
2022/10/07 01:18:34;;;;;;;15.93;8.10;;;19.70;92.20;;;;;;5034548;28;20041;-72
2022/10/07 01:21:25;;;;;;;13.35;7.68;;;19.70;92.30;;;;;;5032859;28;20364;-72
2022/10/07 01:24:26;;;;;;;13.95;7.68;;;19.70;92.30;;;;;;4988993;28;20180;-71
2022/10/07 01:27:08;;;;;;;11.98;7.28;;;19.70;92.30;;;;;;5034587;28;20037;-71
2022/10/07 01:29:57;;;;;;;14.73;7.68;;;19.60;92.20;;;;;;5033951;28;20422;-70
2022/10/07 01:32:39;;;;;;;14.98;7.60;;;19.60;92.40;;;;;;5034670;28;20036;-72
2022/10/07 01:35:11;;;;;;;16.80;8.52;;;19.60;92.40;;;;;;5034214;28;20026;-74
2022/10/07 01:37:48;;;;;;;12.32;7.70;;;19.60;92.10;;;;;;5016757;28;20037;-72
2022/10/07 01:40:21;;;;;;;12.73;8.45;;;19.60;92.20;;;;;;5034163;28;20025;-74
2022/10/07 01:42:50;;;;;;;17.67;8.10;;;19.60;92.50;;;;;;5034172;28;20022;-73
2022/10/07 01:45:20;;;;;;;14.95;7.93;;;19.50;92.30;;;;;;5034072;28;20018;-72
2022/10/07 01:47:49;;;;;;;12.20;7.25;;;19.60;92.30;;;;;;5016594;28;20065;-73
2022/10/07 01:50:21;;;;;;;13.55;8.15;;;19.50;92.30;;;;;;5034256;28;20025;-72
2022/10/07 01:52:46;;;;;;;20.40;8.07;;;19.50;92.40;;;;;;5017049;28;20033;-70
2022/10/07 01:55:27;;;;;;;12.15;8.05;;;19.50;92.50;;;;;;5016113;28;20044;-72
2022/10/07 01:58:28;;;;;;;18.08;7.95;;;19.40;92.60;;;;;;5033888;28;20106;-73
2022/10/07 02:01:10;;;;;;;11.35;7.30;;;19.40;92.80;;;;;;5015694;28;20367;-70
2022/10/07 02:03:48;;;;;;;14.13;7.85;;;19.40;92.60;;;;;;5034067;28;20018;-71
2022/10/07 02:06:39;;;;;;;14.40;7.57;;;19.40;92.70;;;;;;5034542;28;20036;-71
2022/10/07 02:09:28;;;;;;;11.77;7.30;;;19.40;92.70;;;;;;5024466;28;20073;-74
2022/10/07 02:12:03;;;;;;;12.75;7.63;;;19.40;92.70;;;;;;5034861;28;20404;-73
2022/10/07 02:14:40;;;;;;;12.00;7.03;;;19.40;92.40;;;;;;5035192;28;20025;-71
2022/10/07 02:17:13;;;;;;;13.00;6.50;;;19.40;92.60;;;;;;5018665;28;20029;-74
2022/10/07 02:19:47;;;;;;;10.00;6.50;;;19.40;92.30;;;;;;5047021;28;20029;-72
2022/10/07 02:22:28;;;;;;;11.07;6.22;;;19.40;91.90;;;;;;5040030;28;20089;-72
2022/10/07 02:24:57;;;;;;;11.50;6.85;;;19.50;92.30;;;;;;5049857;28;20106;-74
2022/10/07 02:27:31;;;;;;;13.77;7.07;;;19.40;92.00;;;;;;5032317;28;20029;-76
2022/10/07 02:30:10;;;;;;;12.05;6.07;;;19.40;92.10;;;;;;5028668;28;20045;-78
2022/10/07 02:32:40;;;;;;;13.90;6.72;;;19.40;92.10;;;;;;5034665;28;20014;-79
2022/10/07 02:35:15;;;;;;;13.38;6.88;;;19.40;91.90;;;;;;5035481;28;20049;-77
2022/10/07 02:37:43;;;;;;;11.52;6.53;;;19.30;91.90;;;;;;5044581;28;20045;-81
2022/10/07 02:40:09;;;;;;;11.30;6.88;;;19.30;91.90;;;;;;5034668;28;20022;-82
2022/10/07 02:42:58;;;;;;;11.15;6.55;;;19.20;92.00;;;;;;5035055;28;20041;-83
2022/10/07 02:45:39;;;;;;;9.80;5.78;;;19.20;92.10;;;;;;5035514;28;20463;-79
2022/10/07 02:48:36;;;;;;;11.30;5.82;;;19.20;92.20;;;;;;5033993;28;20029;-83
2022/10/07 02:51:07;;;;;;;14.88;6.13;;;19.30;92.10;;;;;;5033150;28;20113;-74
2022/10/07 02:53:35;;;;;;;10.55;5.88;;;19.20;91.90;;;;;;5032565;28;20133;-76
2022/10/07 02:56:04;;;;;;;11.00;6.10;;;19.20;91.80;;;;;;5032847;28;20025;-78
2022/10/07 02:58:32;;;;;;;12.88;6.47;;;19.20;91.80;;;;;;5032908;28;20037;-74
2022/10/07 03:01:00;;;;;;;11.35;5.95;;;19.30;92.00;;;;;;5033171;28;20030;-77
2022/10/07 03:03:27;;;;;;;10.68;5.57;;;19.30;91.50;;;;;;5033301;28;20029;-80
2022/10/07 03:05:53;;;;;;;12.15;5.90;;;19.30;91.50;;;;;;5033043;28;20029;-81
2022/10/07 03:08:21;;;;;;;9.57;5.35;;;19.30;91.40;;;;;;5015486;28;20085;-76
2022/10/07 03:10:53;;;;;;;10.65;5.53;;;19.30;91.30;;;;;;5032984;28;20029;-76
2022/10/07 03:13:20;;;;;;;9.85;5.80;;;19.30;91.30;;;;;;5032331;28;20037;-79
2022/10/07 03:15:47;;;;;;;13.00;6.05;;;19.20;91.30;;;;;;5015710;28;20045;-81
2022/10/07 03:18:26;;;;;;;9.73;5.55;;;19.20;91.50;;;;;;5033421;28;20379;-71
2022/10/07 03:20:56;;;;;;;11.35;6.35;;;19.20;91.50;;;;;;5031949;28;20045;-70
2022/10/07 03:23:23;;;;;;;12.23;6.13;;;19.20;91.30;;;;;;5032618;28;20331;-72
2022/10/07 03:25:54;;;;;;;11.13;6.38;;;19.20;91.30;;;;;;5033523;28;20184;-71
2022/10/07 03:28:21;;;;;;;12.18;5.47;;;19.20;91.20;;;;;;5032953;28;20605;-73
2022/10/07 03:30:49;;;;;;;11.52;5.88;;;19.10;91.20;;;;;;5032718;28;20041;-70
2022/10/07 03:33:17;;;;;;;8.82;5.45;;;19.10;91.30;;;;;;5033281;28;20337;-71
2022/10/07 03:35:44;;;;;;;11.18;5.70;;;19.10;91.20;;;;;;5016109;28;20109;-72
2022/10/07 03:38:10;;;;;;;9.07;5.95;;;19.00;91.20;;;;;;5015800;28;20084;-70
2022/10/07 03:40:37;;;;;;;9.55;5.10;;;19.00;91.00;;;;;;5033529;28;20021;-75
2022/10/07 03:43:10;;;;;;;9.85;4.90;;;19.00;91.00;;;;;;5032679;28;20025;-73
2022/10/07 03:45:43;;;;;;;10.38;5.57;;;19.00;91.00;;;;;;5033029;28;20036;-73
2022/10/07 03:48:09;;;;;;;9.98;5.40;;;19.00;90.90;;;;;;5033280;28;20382;-72
2022/10/07 03:50:36;;;;;;;10.07;5.47;;;19.00;90.90;;;;;;5033935;28;20037;-75
2022/10/07 03:53:03;;;;;;;8.60;4.65;;;19.00;90.70;;;;;;5033122;28;20497;-79
2022/10/07 03:55:31;;;;;;;7.90;4.88;;;19.00;90.70;;;;;;5032331;28;20386;-76
2022/10/07 03:57:57;;;;;;;9.13;5.15;;;19.00;90.40;;;;;;5032420;28;20053;-81
2022/10/07 04:00:25;;;;;;;8.93;4.55;;;18.90;90.40;;;;;;5032246;28;20091;-77
2022/10/07 04:02:51;;;;;;;10.57;5.03;;;18.90;90.30;;;;;;5032195;28;20096;-77
2022/10/07 04:05:19;;;;;;;7.85;5.28;;;18.80;90.20;;;;;;5032124;28;20049;-79
2022/10/07 04:07:47;;;;;;;9.52;4.32;;;18.80;90.20;;;;;;5031939;28;20135;-71
2022/10/07 04:10:15;;;;;;;8.10;4.55;;;18.80;90.10;;;;;;5032115;28;20029;-75
2022/10/07 04:12:46;;;;;;;8.85;4.40;;;18.80;90.10;;;;;;5014651;28;20038;-78
2022/10/07 04:15:12;;;;;;;10.00;5.18;;;18.80;90.20;;;;;;5014375;28;20108;-82
2022/10/07 04:17:39;;;;;;;7.22;4.68;;;18.80;90.00;;;;;;5031987;28;20024;-72
2022/10/07 04:20:06;;;;;;;9.43;4.40;;;18.80;89.90;;;;;;5032317;28;20045;-77
2022/10/07 04:22:32;;;;;;;7.85;4.57;;;18.80;89.90;;;;;;5032388;28;20036;-73
2022/10/07 04:27:41;;;;;;;;;;;18.80;89.80;;;;;;5036307;28;20171;-82
2022/10/07 04:30:09;;;;;;;8.30;4.55;;;18.80;89.70;;;;;;5035865;28;20000;-81
2022/10/07 04:32:37;;;;;;;10.55;4.57;;;18.70;89.70;;;;;;5036038;28;20118;-83
2022/10/07 04:35:04;;;;;;;9.15;4.30;;;18.70;89.10;;;;;;5035651;28;20029;-82
2022/10/07 04:37:33;;;;;;;8.48;4.38;;;18.70;89.10;;;;;;5036706;28;20071;-77
2022/10/07 04:40:00;;;;;;;11.13;5.55;;;18.70;89.00;;;;;;5019060;28;20035;-80
2022/10/07 04:45:12;;;;;;;8.50;4.88;;;18.60;89.10;;;;;;5020963;28;20068;-82
2022/10/07 04:47:38;;;;;;;8.23;4.70;;;18.60;89.00;;;;;;5032275;28;20033;-79
2022/10/07 04:50:06;;;;;;;9.20;5.30;;;18.60;88.60;;;;;;5035669;28;20034;-84
2022/10/07 04:52:42;;;;;;;7.88;4.45;;;18.60;89.00;;;;;;5035544;28;20029;-82
2022/10/07 04:55:11;;;;;;;10.32;4.63;;;18.60;88.80;;;;;;5035462;28;20148;-78
2022/10/07 04:57:37;;;;;;;10.20;4.10;;;18.60;88.80;;;;;;5035491;28;20050;-81
2022/10/07 05:00:05;;;;;;;8.75;4.35;;;18.60;88.60;;;;;;5017762;28;20040;-77
2022/10/07 05:02:31;;;;;;;9.20;4.40;;;18.50;88.60;;;;;;5002664;28;20091;-83
2022/10/07 05:04:58;;;;;;;8.70;4.80;;;18.50;89.10;;;;;;5037308;28;20018;-79
2022/10/07 05:07:25;;;;;;;7.57;4.38;;;18.50;88.30;;;;;;5035486;28;20033;-82
2022/10/07 05:09:51;;;;;;;9.80;4.10;;;18.30;88.30;;;;;;5035640;28;20053;-81
2022/10/07 05:12:17;;;;;;;12.00;4.72;;;18.40;88.60;;;;;;5017477;28;20099;-79
2022/10/07 05:14:44;;;;;;;9.48;4.53;;;18.40;88.50;;;;;;5017527;28;20085;-82
2022/10/07 05:17:12;;;;;;;10.77;4.35;;;18.40;88.50;;;;;;5032997;28;20149;-81
2022/10/07 05:19:38;;;;;;;8.35;4.40;;;18.30;88.60;;;;;;5017650;28;20022;-79
2022/10/07 05:22:05;;;;;;;13.30;4.97;;;18.30;88.70;;;;;;5017377;28;20475;-80
2022/10/07 05:24:31;;;;;;;10.18;4.57;;;18.30;88.40;;;;;;5035712;28;20056;-80
2022/10/07 05:26:57;;;;;;;11.45;4.55;;;18.30;89.00;;;;;;5035866;28;20036;-83
2022/10/07 05:29:23;;;;;;;8.68;4.43;;;18.30;88.80;;;;;;5036163;28;20470;-72
2022/10/07 05:31:49;;;;;;;9.95;4.82;;;18.30;88.80;;;;;;5035264;28;20115;-72
2022/10/07 05:34:15;;;;;;;12.77;5.40;;;18.30;88.90;;;;;;5034584;28;20471;-76
2022/10/07 05:36:42;;;;;;;13.82;4.93;;;18.30;88.90;;;;;;5034253;28;20022;-74
2022/10/07 05:39:10;;;;;;;12.23;4.43;;;18.30;88.90;;;;;;5034874;28;20044;-72
2022/10/07 05:41:38;;;;;;;13.15;4.55;;;18.30;89.00;;;;;;5034731;28;20017;-75
2022/10/07 05:44:04;;;;;;;15.95;5.32;;;18.30;89.00;;;;;;5034449;28;20548;-72
2022/10/07 05:46:30;;;;;;;16.75;5.30;;;18.30;88.70;;;;;;5034408;28;20052;-70
2022/10/07 05:48:55;;;;;;;8.55;4.75;;;18.30;88.60;;;;;;5033910;28;20406;-71
2022/10/07 05:51:23;;;;;;;11.60;4.78;;;18.30;88.60;;;;;;5033949;28;20067;-69
2022/10/07 05:53:53;;;;;;;9.27;4.65;;;18.30;88.50;;;;;;5034462;28;20465;-72
2022/10/07 05:56:22;;;;;;;9.82;5.22;;;18.30;88.50;;;;;;5033853;28;20040;-75
2022/10/07 05:58:49;;;;;;;12.40;4.63;;;18.40;88.70;;;;;;5033709;28;20052;-74
2022/10/07 06:01:17;;;;;;;13.63;5.07;;;18.40;88.30;;;;;;5033666;28;20447;-72
2022/10/07 06:03:48;;;;;;;10.43;4.78;;;18.50;88.40;;;;;;5031262;28;20029;-73
2022/10/07 06:06:14;;;;;;;10.50;4.82;;;18.50;87.90;;;;;;5033664;28;20025;-71
2022/10/07 06:08:40;;;;;;;9.23;5.00;;;18.60;88.10;;;;;;5016125;28;20033;-71
2022/10/07 06:13:52;;;;;;;12.85;5.60;;;18.70;87.90;;;;;;5028275;28;20114;-72
2022/10/07 06:16:19;;;;;;;12.15;5.45;;;18.80;87.50;;;;;;5033780;28;20097;-71
2022/10/07 06:18:45;;;;;;;10.27;5.60;;;18.90;87.00;;;;;;5033848;28;20076;-70
2022/10/07 06:21:11;;;;;;;12.35;5.65;;;19.00;86.90;;;;;;5034031;28;20032;-75
2022/10/07 06:23:37;;;;;;;13.95;5.25;;;19.10;86.30;;;;;;5034317;28;20029;-70
2022/10/07 06:26:05;;;;;;;14.45;5.38;;;19.20;86.10;;;;;;5033879;28;20028;-72
2022/10/07 06:28:41;;;;;;;12.85;5.05;;;19.30;85.70;;;;;;5033441;28;20069;-71
2022/10/07 06:31:13;;;;;;;12.55;5.18;;;19.40;85.50;;;;;;5033676;28;20022;-78
2022/10/07 06:33:39;;;;;;;8.67;4.60;;;19.50;85.40;;;;;;5033339;28;20036;-73
2022/10/07 06:36:10;;;;;;;9.57;4.95;;;19.60;84.40;;;;;;5033514;28;20265;-73
2022/10/07 06:38:36;;;;;;;11.63;4.97;;;19.60;84.90;;;;;;5015533;28;20108;-74
2022/10/07 06:41:04;;;;;;;10.18;5.00;;;19.70;83.90;;;;;;5033504;28;20117;-74
2022/10/07 06:43:32;;;;;;;17.83;5.18;;;19.80;83.90;;;;;;5015658;28;20030;-74
2022/10/07 06:46:01;;;;;;;11.68;4.95;;;19.80;83.70;;;;;;5032813;28;20026;-74
2022/10/07 06:48:32;;;;;;;15.68;5.93;;;19.90;83.60;;;;;;5032797;28;20041;-77
2022/10/07 06:51:01;;;;;;;11.65;5.22;;;19.90;83.30;;;;;;5032902;28;20128;-73
2022/10/07 06:53:27;;;;;;;10.23;5.13;;;20.00;83.10;;;;;;5033736;28;20030;-75
2022/10/07 06:55:56;;;;;;;16.63;5.57;;;20.10;83.10;;;;;;5033363;28;20363;-72
2022/10/07 06:58:25;;;;;;;14.63;5.22;;;20.10;82.90;;;;;;5033233;28;20051;-74
2022/10/07 07:00:52;;;;;;;15.32;4.88;;;20.30;82.30;;;;;;5032768;28;20029;-76
2022/10/07 07:03:18;;;;;;;14.27;4.47;;;20.40;81.90;;;;;;5032916;28;20025;-75
2022/10/07 07:05:45;;;;;;;11.02;4.57;;;20.50;81.40;;;;;;5033219;28;20037;-75
2022/10/07 07:08:13;;;;;;;14.50;5.10;;;20.60;81.00;;;;;;5032159;28;20065;-71
2022/10/07 07:10:41;;;;;;;12.27;5.20;;;20.70;80.80;;;;;;5032525;28;20029;-72
2022/10/07 07:13:08;;;;;;;11.63;5.03;;;20.90;80.30;;;;;;5032883;28;20040;-71
2022/10/07 07:15:35;;;;;;;15.10;4.60;;;20.90;80.00;;;;;;5032483;28;20041;-70
2022/10/07 07:18:02;;;;;;;11.38;4.78;;;21.00;80.00;;;;;;5032522;28;20030;-71
2022/10/07 07:20:34;;;;;;;12.50;5.00;;;21.10;79.80;;;;;;5032708;28;20175;-69
2022/10/07 07:23:08;;;;;;;11.73;4.63;;;21.20;79.70;;;;;;5032903;28;20052;-71
2022/10/07 07:25:36;;;;;;;11.65;4.68;;;21.30;78.50;;;;;;5014489;28;20467;-70
2022/10/07 07:28:03;;;;;;;10.52;4.38;;;21.30;78.40;;;;;;5032445;28;20535;-71
2022/10/07 07:30:30;;;;;;;10.52;4.82;;;21.40;78.20;;;;;;5032570;28;20443;-72
2022/10/07 07:32:56;;;;;;;12.25;4.90;;;21.40;78.00;;;;;;5032552;28;20049;-70
2022/10/07 07:35:23;;;;;;;9.82;4.53;;;21.30;77.50;;;;;;5032570;28;20101;-70
2022/10/07 07:37:49;;;;;;;11.02;4.45;;;21.30;77.80;;;;;;5032820;28;20068;-72
2022/10/07 07:40:16;;;;;;;9.25;3.70;;;21.30;78.00;;;;;;5032783;28;20049;-71
2022/10/07 07:42:44;;;;;;;10.20;4.43;;;21.20;77.40;;;;;;5032515;28;20120;-72
2022/10/07 07:45:09;;;;;;;11.23;4.60;;;21.20;77.60;;;;;;5032171;28;20453;-70
2022/10/07 07:47:35;;;;;;;15.52;5.28;;;21.10;77.60;;;;;;5032296;28;20049;-72
2022/10/07 07:50:02;;;;;;;20.92;5.45;;;21.20;77.80;;;;;;5014654;28;20124;-72
2022/10/07 07:52:28;;;;;;;9.75;4.68;;;21.20;77.60;;;;;;5032348;28;20032;-73
2022/10/07 07:54:57;;;;;;;8.52;4.40;;;21.20;77.50;;;;;;5014854;28;20037;-70
2022/10/07 07:57:27;;;;;;;6.97;4.30;;;21.20;77.40;;;;;;5032059;28;20049;-73
2022/10/07 07:59:54;;;;;;;14.20;5.38;;;21.10;77.00;;;;;;5035905;28;20053;-73
2022/10/07 08:02:20;;;;;;;12.95;4.90;;;21.10;77.10;;;;;;5036370;28;20021;-74
2022/10/07 08:04:46;;;;;;;8.25;4.80;;;21.20;77.00;;;;;;5036569;28;20051;-72
2022/10/07 08:07:12;;;;;;;20.05;5.80;;;21.20;77.00;;;;;;5036466;28;20096;-72
2022/10/07 08:09:39;;;;;;;11.18;4.75;;;21.20;77.10;;;;;;5036165;28;20069;-71
2022/10/07 08:12:06;;;;;;;10.02;5.20;;;21.30;76.90;;;;;;5036050;28;20101;-72
2022/10/07 08:14:31;;;;;;;15.50;5.47;;;21.40;76.40;;;;;;5036300;28;20101;-71
2022/10/07 08:16:58;;;;;;;12.20;5.18;;;21.40;76.50;;;;;;5035728;28;20105;-71
2022/10/07 08:19:25;;;;;;;11.00;4.65;;;21.50;76.60;;;;;;5035929;28;20048;-70
2022/10/07 08:21:51;;;;;;;11.80;4.43;;;21.50;76.10;;;;;;5035991;28;20055;-69
2022/10/07 08:24:18;;;;;;;8.90;4.93;;;21.70;76.00;;;;;;5035970;28;20025;-70
2022/10/07 08:26:46;;;;;;;11.45;4.75;;;21.80;76.80;;;;;;5035451;28;20104;-70
2022/10/07 08:29:12;;;;;;;14.57;4.78;;;21.80;75.30;;;;;;5035782;28;20116;-70
2022/10/07 08:31:37;;;;;;;11.77;6.13;;;21.80;75.40;;;;;;5035666;28;20447;-72
2022/10/07 08:34:05;;;;;;;15.38;4.68;;;21.90;75.20;;;;;;5035101;28;20030;-73
2022/10/07 08:36:32;;;;;;;10.23;4.53;;;21.90;74.90;;;;;;5035558;28;20033;-71
2022/10/07 08:38:59;;;;;;;9.45;4.78;;;21.90;74.70;;;;;;5035605;28;20030;-71
2022/10/07 08:41:44;;;;;;;11.30;4.93;;;21.90;74.70;;;;;;5035832;28;20017;-72
2022/10/07 08:44:14;;;;;;;10.65;5.13;;;21.90;75.50;;;;;;5036041;28;20068;-70
2022/10/07 08:46:52;;;;;;;9.57;5.05;;;22.00;74.60;;;;;;5036357;28;20417;-72
2022/10/07 08:49:38;;;;;;;10.88;4.82;;;22.00;75.20;;;;;;5018451;28;20115;-72
2022/10/07 08:52:31;;;;;;;10.77;4.78;;;22.00;75.50;;;;;;5036147;28;20029;-73
2022/10/07 08:55:00;;;;;;;10.60;5.55;;;22.10;75.50;;;;;;5035590;28;20037;-73
2022/10/07 08:58:02;;;;;;;12.50;5.18;;;22.10;74.40;;;;;;5034955;28;20084;-72
2022/10/07 09:00:45;;;;;;;19.33;8.90;;;22.20;75.20;;;;;;4979744;28;20032;-73
2022/10/07 09:03:16;;;;;;;10.35;4.95;;;22.30;75.10;;;;;;5035508;28;20037;-72
2022/10/07 09:05:46;;;;;;;12.15;5.43;;;22.40;74.80;;;;;;5035204;28;20387;-71
2022/10/07 09:08:39;;;;;;;14.32;5.45;;;22.40;73.60;;;;;;5035165;28;20069;-70
2022/10/07 09:11:18;;;;;;;13.73;5.45;;;22.50;74.60;;;;;;5033830;28;20026;-73
2022/10/07 09:14:23;;;;;;;11.25;5.15;;;22.60;73.70;;;;;;5035158;28;20355;-72
2022/10/07 09:16:51;;;;;;;8.60;4.78;;;22.70;74.20;;;;;;5029771;28;20041;-73
2022/10/07 09:19:32;;;;;;;10.88;5.88;;;22.70;73.20;;;;;;5035006;28;20422;-73
2022/10/07 09:22:20;;;;;;;15.98;5.75;;;22.70;73.90;;;;;;5016873;28;20033;-71
2022/10/07 09:24:50;;;;;;;9.63;5.07;;;22.80;73.30;;;;;;5034004;28;20045;-72
2022/10/07 09:27:19;;;;;;;11.07;4.90;;;22.90;73.20;;;;;;5034568;28;20109;-73
2022/10/07 09:29:45;;;;;;;72.20;11.55;;;23.00;73.10;;;;;;5034355;28;20410;-72
2022/10/07 09:32:13;;;;;;;28.67;7.32;;;23.10;72.90;;;;;;5034651;28;20030;-70
2022/10/07 09:34:40;;;;;;;19.10;6.13;;;23.20;73.00;;;;;;5034511;28;20036;-72
2022/10/07 09:37:39;;;;;;;11.40;5.68;;;23.30;72.70;;;;;;5034929;28;20075;-72
2022/10/07 09:43:30;;;;;;;13.73;5.40;;;23.40;72.10;;;;;;5034566;28;20056;-74
2022/10/07 09:45:57;;;;;;;10.73;5.13;;;23.50;72.00;;;;;;5034153;28;20183;-72
2022/10/07 09:48:27;;;;;;;11.85;5.15;;;23.50;71.70;;;;;;5034189;28;20167;-72
2022/10/07 09:51:15;;;;;;;11.15;5.03;;;23.60;72.10;;;;;;5034299;28;20066;-74
2022/10/07 09:53:57;;;;;;;12.48;4.88;;;23.70;71.40;;;;;;5034183;28;20018;-73
2022/10/07 09:56:35;;;;;;;11.30;5.00;;;23.80;71.00;;;;;;5015833;28;20045;-74
2022/10/07 09:59:21;;;;;;;12.68;5.78;;;23.90;71.10;;;;;;5034068;28;20049;-72
2022/10/07 10:02:02;;;;;;;8.50;5.10;;;24.00;71.00;;;;;;5015985;28;20077;-73
2022/10/07 10:04:34;;;;;;;10.38;4.97;;;24.00;69.80;;;;;;5033847;28;20052;-72
2022/10/07 10:07:17;;;;;;;14.45;5.88;;;24.00;71.30;;;;;;5034003;28;20021;-75
2022/10/07 10:09:54;;;;;;;10.60;5.00;;;24.10;69.40;;;;;;5033645;28;20048;-74
2022/10/07 10:12:22;;;;;;;8.55;4.35;;;24.30;70.10;;;;;;5033975;28;20025;-74
2022/10/07 10:14:58;;;;;;;10.18;4.65;;;24.40;70.10;;;;;;5033940;28;20053;-69
2022/10/07 10:17:36;;;;;;;9.77;4.28;;;24.50;69.60;;;;;;5016414;28;20386;-70
2022/10/07 10:20:43;;;;;;;11.48;4.55;;;24.50;69.10;;;;;;5034039;28;20032;-73
2022/10/07 10:23:32;;;;;;;9.15;4.53;;;24.60;67.80;;;;;;5033297;28;20021;-73
2022/10/07 10:26:25;;;;;;;12.55;5.22;;;24.70;67.90;;;;;;5033482;28;20037;-72
2022/10/07 10:29:08;;;;;;;14.25;8.45;;;24.80;67.10;;;;;;5033229;28;20514;-72
2022/10/07 10:31:59;;;;;;;10.40;4.22;;;24.90;66.70;;;;;;5033478;28;20026;-74
2022/10/07 10:34:32;;;;;;;8.43;4.32;;;25.00;65.70;;;;;;5033381;28;20040;-70
2022/10/07 10:37:17;;;;;;;8.50;4.05;;;25.10;65.40;;;;;;5033185;28;20524;-70
2022/10/07 10:40:19;;;;;;;7.75;3.92;;;25.20;65.00;;;;;;5033238;28;20327;-71
2022/10/07 10:43:25;;;;;;;8.05;4.10;;;25.30;64.80;;;;;;5033292;28;20033;-70
2022/10/07 10:46:09;;;;;;;8.18;3.97;;;25.40;64.50;;;;;;5020096;28;20060;-71
2022/10/07 10:48:40;;;;;;;;;;;25.50;64.20;;;;;;5033783;28;20041;-71
2022/10/07 10:51:12;;;;;;;8.75;3.83;;;25.70;62.80;;;;;;5033131;28;19905;-71
2022/10/07 10:53:46;;;;;;;9.25;4.68;;;25.70;63.20;;;;;;5033111;28;20090;-72
2022/10/07 10:56:19;;;;;;;12.20;4.53;;;25.90;63.10;;;;;;5033508;28;20025;-72
2022/10/07 10:59:00;;;;;;;12.63;4.30;;;26.10;62.80;;;;;;5033061;28;20036;-73
2022/10/07 11:01:33;;;;;;;13.63;4.32;;;26.10;62.20;;;;;;5032791;28;20033;-72
2022/10/07 11:04:26;;;;;;;8.88;4.35;;;26.20;62.20;;;;;;5033118;28;20025;-72
2022/10/07 11:07:03;;;;;;;12.85;4.07;;;26.40;61.60;;;;;;5032801;28;20025;-72
2022/10/07 11:09:39;;;;;;;11.65;4.40;;;26.50;61.20;;;;;;5032717;28;20045;-75
2022/10/07 11:12:23;;;;;;;9.95;4.38;;;26.60;60.60;;;;;;5032499;28;20053;-72
2022/10/07 11:14:55;;;;;;;10.48;4.00;;;26.80;60.10;;;;;;5032563;28;20104;-71
2022/10/07 11:17:25;;;;;;;12.27;4.20;;;27.00;59.30;;;;;;5032586;28;20052;-71
2022/10/07 11:20:24;;;;;;;5.53;2.92;;;27.20;58.60;;;;;;5032368;28;20062;-72
2022/10/07 11:23:12;;;;;;;6.25;3.47;;;27.20;57.80;;;;;;5032161;28;20022;-74
2022/10/07 11:25:45;;;;;;;7.78;3.22;;;27.30;56.80;;;;;;5032582;28;20486;-72
2022/10/07 11:28:21;;;;;;;9.25;3.45;;;27.30;57.00;;;;;;5032337;28;20045;-70
2022/10/07 11:31:02;;;;;;;11.27;3.65;;;27.30;55.90;;;;;;5032308;28;20375;-72
2022/10/07 11:33:45;;;;;;;9.45;4.00;;;27.40;56.00;;;;;;5031614;28;20033;-71
2022/10/07 11:36:25;;;;;;;8.87;3.97;;;27.50;56.40;;;;;;5032233;28;20022;-71
2022/10/07 11:38:52;;;;;;;16.55;8.20;;;27.60;56.00;;;;;;5014502;28;20032;-74
2022/10/07 11:41:24;;;;;;;8.25;4.32;;;27.60;56.00;;;;;;5014798;28;20185;-70
2022/10/07 11:43:55;;;;;;;10.52;4.07;;;27.50;56.40;;;;;;5032293;28;20022;-70
2022/10/07 11:46:23;;;;;;;8.70;3.72;;;27.40;56.30;;;;;;5032153;28;20121;-74
2022/10/07 11:49:02;;;;;;;8.23;3.05;;;27.40;56.50;;;;;;5032150;28;20065;-71
2022/10/07 11:51:46;;;;;;;10.18;3.58;;;27.50;56.20;;;;;;5032042;28;20374;-72
2022/10/07 11:54:15;;;;;;;8.27;3.53;;;27.70;56.30;;;;;;5014187;28;20114;-71
2022/10/07 11:56:47;;;;;;;9.15;3.55;;;27.80;55.70;;;;;;5032057;28;20058;-71
2022/10/07 11:59:42;;;;;;;8.02;3.30;;;27.80;55.30;;;;;;5032202;28;20034;-74
2022/10/07 12:02:29;;;;;;;8.43;3.17;;;27.90;54.90;;;;;;5014490;28;20040;-70
2022/10/07 12:04:59;;;;;;;6.45;4.00;;;28.00;55.00;;;;;;5032483;28;20048;-70
2022/10/07 12:07:31;;;;;;;9.32;3.55;;;28.10;54.80;;;;;;5032119;28;20405;-73
2022/10/07 12:10:02;;;;;;;12.52;3.53;;;28.30;54.70;;;;;;5031810;28;20445;-75
2022/10/07 12:12:43;;;;;;;7.85;3.65;;;28.40;54.00;;;;;;5032298;28;20029;-72
2022/10/07 12:15:33;;;;;;;9.57;3.70;;;28.60;53.80;;;;;;5031835;28;20040;-73
2022/10/07 12:18:05;;;;;;;9.63;4.20;;;28.60;51.80;;;;;;5031652;28;20033;-75
2022/10/07 12:20:45;;;;;;;10.82;4.10;;;28.70;53.10;;;;;;5031856;28;20079;-74
2022/10/07 12:23:20;;;;;;;8.98;4.35;;;28.70;53.30;;;;;;5031852;28;20026;-71
2022/10/07 12:25:52;;;;;;;7.53;4.03;;;28.60;51.60;;;;;;5031815;28;20037;-73
2022/10/07 12:28:40;;;;;;;8.40;4.30;;;28.30;52.50;;;;;;5031516;28;20554;-71
2022/10/07 12:31:15;;;;;;;11.35;4.25;;;28.20;51.70;;;;;;5031614;28;20072;-70
2022/10/07 12:33:44;;;;;;;13.73;4.00;;;28.10;53.00;;;;;;5031648;28;20030;-71
2022/10/07 12:36:22;;;;;;;7.60;3.60;;;28.10;53.20;;;;;;5031912;28;20026;-73
2022/10/07 12:39:08;;;;;;;6.32;3.17;;;28.00;53.30;;;;;;5031589;28;20490;-74
2022/10/07 12:41:41;;;;;;;8.98;3.67;;;28.00;53.30;;;;;;5015037;28;20037;-73
2022/10/07 12:44:07;;;;;;;;;;;28.10;52.80;;;;;;5032991;28;20048;-72
2022/10/07 12:47:04;;;;;;;11.52;3.80;;;28.00;52.20;;;;;;5035407;28;19905;-73
2022/10/07 12:49:30;;;;;;;8.73;3.90;;;28.20;53.40;;;;;;5018215;28;20037;-74
2022/10/07 12:52:00;;;;;;;7.15;3.90;;;28.30;52.70;;;;;;5035299;28;20033;-73
2022/10/07 12:54:44;;;;;;;7.80;3.60;;;28.40;52.80;;;;;;5017715;28;20380;-72
2022/10/07 12:57:15;;;;;;;11.43;3.47;;;28.40;50.80;;;;;;5035000;28;20044;-72
2022/10/07 12:59:50;;;;;;;11.13;3.70;;;28.50;52.10;;;;;;5035443;28;20033;-73
2022/10/07 13:02:43;;;;;;;10.35;4.43;;;28.50;50.30;;;;;;5035450;28;20052;-70
2022/10/07 13:05:27;;;;;;;11.77;3.55;;;28.60;50.40;;;;;;5035100;28;20068;-72
2022/10/07 13:08:14;;;;;;;8.55;3.60;;;28.60;51.40;;;;;;5034798;28;20028;-72
2022/10/07 13:11:12;;;;;;;9.70;4.75;;;28.50;50.00;;;;;;5035012;28;20033;-74
2022/10/07 13:13:59;;;;;;;6.85;3.38;;;28.40;49.70;;;;;;4979925;28;20179;-72
2022/10/07 13:16:41;;;;;;;6.38;3.70;;;28.40;49.80;;;;;;5034387;28;20424;-73
2022/10/07 13:19:18;;;;;;;8.73;3.95;;;28.50;50.30;;;;;;5034521;28;20068;-73
2022/10/07 13:22:18;;;;;;;8.75;3.97;;;28.60;50.10;;;;;;5034841;28;20090;-72
2022/10/07 13:24:54;;;;;;;9.55;3.17;;;28.60;49.80;;;;;;5028622;28;20038;-73